createdAt,value
2023-05-23T00:00:59.663Z,14.60
2023-05-23T00:03:27.520Z,15.95
2023-05-23T00:05:56.633Z,13.15
2023-05-23T00:10:50.431Z,13.82
2023-05-23T00:13:17.687Z,12.25
2023-05-23T00:15:45.273Z,11.55
2023-05-23T00:18:12.212Z,13.15
2023-05-23T00:20:42.855Z,13.05
2023-05-23T00:23:10.598Z,13.02
2023-05-23T00:25:38.000Z,12.52
2023-05-23T00:28:05.267Z,12.15
2023-05-23T00:30:34.066Z,15.82
2023-05-23T00:33:01.351Z,14.13
2023-05-23T00:35:28.354Z,13.02
2023-05-23T00:37:55.636Z,12.15
2023-05-23T00:40:23.074Z,12.85
2023-05-23T00:42:49.869Z,12.50
2023-05-23T00:45:19.622Z,12.07
2023-05-23T00:47:48.348Z,12.00
2023-05-23T00:50:16.101Z,11.30
2023-05-23T00:52:44.705Z,11.77
2023-05-23T00:55:12.457Z,11.07
2023-05-23T00:57:44.474Z,11.32
2023-05-23T01:00:15.869Z,12.95
2023-05-23T01:02:47.500Z,13.55
2023-05-23T01:05:17.752Z,13.80
2023-05-23T01:07:49.113Z,11.05
2023-05-23T01:10:28.268Z,12.15
2023-05-23T01:13:03.978Z,11.82
2023-05-23T01:15:42.615Z,13.32
2023-05-23T01:18:57.972Z,11.45
2023-05-23T01:21:26.941Z,10.90
2023-05-23T01:27:03.745Z,10.65
2023-05-23T01:29:38.460Z,10.90
2023-05-23T01:32:11.625Z,11.45
2023-05-23T01:34:40.210Z,11.55
2023-05-23T01:37:14.829Z,11.07
2023-05-23T01:39:42.528Z,11.90
2023-05-23T01:42:09.693Z,8.80
2023-05-23T01:44:37.272Z,10.48
2023-05-23T01:47:05.973Z,9.82
2023-05-23T01:49:34.340Z,10.52
2023-05-23T01:52:02.185Z,11.00
2023-05-23T01:54:30.368Z,10.55
2023-05-23T01:56:57.956Z,9.70
2023-05-23T01:59:25.068Z,10.18
2023-05-23T02:01:52.228Z,10.57
2023-05-23T02:04:19.226Z,10.98
2023-05-23T02:06:46.736Z,10.07
2023-05-23T02:09:14.083Z,10.10
2023-05-23T02:11:41.003Z,9.32
2023-05-23T02:14:08.029Z,9.60
2023-05-23T02:16:36.666Z,9.95
2023-05-23T02:19:04.210Z,9.48
2023-05-23T02:21:34.261Z,8.93
2023-05-23T02:24:03.636Z,8.52
2023-05-23T02:26:30.737Z,9.77
2023-05-23T02:28:57.769Z,9.75
2023-05-23T02:31:25.169Z,10.13
2023-05-23T02:33:52.026Z,8.02
2023-05-23T02:36:18.809Z,8.68
2023-05-23T02:38:45.669Z,9.43
2023-05-23T02:41:12.635Z,8.48
2023-05-23T02:43:39.593Z,9.05
2023-05-23T02:46:06.753Z,9.93
2023-05-23T02:48:33.485Z,9.35
2023-05-23T02:51:00.547Z,8.00
2023-05-23T02:53:27.594Z,7.93
2023-05-23T02:55:55.041Z,9.27
2023-05-23T02:58:21.813Z,7.95
2023-05-23T03:00:48.729Z,8.55
2023-05-23T03:03:16.986Z,8.63
2023-05-23T03:05:44.144Z,7.83
2023-05-23T03:08:10.928Z,8.63
2023-05-23T03:10:37.654Z,8.40
2023-05-23T03:13:05.130Z,7.85
2023-05-23T03:15:32.256Z,8.10
2023-05-23T03:17:59.131Z,9.27
2023-05-23T03:20:26.116Z,8.65
2023-05-23T03:22:54.570Z,8.57
2023-05-23T03:25:23.130Z,7.70
2023-05-23T03:27:50.028Z,9.82
2023-05-23T03:30:16.996Z,10.85
2023-05-23T03:32:44.139Z,8.23
2023-05-23T03:37:39.087Z,7.43
2023-05-23T03:40:07.396Z,7.18
2023-05-23T03:45:01.750Z,8.98
2023-05-23T03:47:28.489Z,9.25
2023-05-23T03:49:57.855Z,8.68
2023-05-23T03:52:25.450Z,9.23
2023-05-23T03:54:52.118Z,10.57
2023-05-23T03:57:19.306Z,9.50
2023-05-23T03:59:46.933Z,7.72
2023-05-23T04:02:14.782Z,6.95
2023-05-23T04:04:42.092Z,8.73
2023-05-23T04:07:09.983Z,7.07
2023-05-23T04:09:37.246Z,6.78
2023-05-23T04:12:08.915Z,7.95
2023-05-23T04:14:36.052Z,7.30
2023-05-23T04:17:02.965Z,8.90
2023-05-23T04:19:29.824Z,7.15
2023-05-23T04:21:56.887Z,7.10
2023-05-23T04:24:23.659Z,7.07
2023-05-23T04:26:50.667Z,8.93
2023-05-23T04:29:17.632Z,6.50
2023-05-23T04:31:46.190Z,8.73
2023-05-23T04:34:13.544Z,6.40
2023-05-23T04:36:40.427Z,6.45
2023-05-23T04:39:07.870Z,8.15
2023-05-23T04:41:40.228Z,8.02
2023-05-23T04:44:37.558Z,7.50
2023-05-23T04:47:14.599Z,7.68
2023-05-23T04:50:02.133Z,6.95
2023-05-23T04:52:33.291Z,6.40
2023-05-23T04:55:01.370Z,7.13
2023-05-23T04:57:28.744Z,6.93
2023-05-23T04:59:56.948Z,8.40
2023-05-23T05:02:24.103Z,8.80
2023-05-23T05:04:51.323Z,6.90
2023-05-23T05:07:18.300Z,8.57
2023-05-23T05:09:45.033Z,7.45
2023-05-23T05:12:12.347Z,8.18
2023-05-23T05:14:40.095Z,5.65
2023-05-23T05:17:06.988Z,9.02
2023-05-23T05:19:42.248Z,8.93
2023-05-23T05:22:09.069Z,7.35
2023-05-23T05:24:35.997Z,9.30
2023-05-23T05:27:03.644Z,6.13
2023-05-23T05:29:31.397Z,7.10
2023-05-23T05:31:58.137Z,9.32
2023-05-23T05:34:24.934Z,9.02
2023-05-23T05:36:56.095Z,6.78
2023-05-23T05:39:26.114Z,7.55
2023-05-23T05:41:52.948Z,7.05
2023-05-23T05:44:20.183Z,6.80
2023-05-23T05:46:48.379Z,8.57
2023-05-23T05:49:15.300Z,7.78
2023-05-23T05:51:43.749Z,6.83
2023-05-23T05:54:10.695Z,6.43
2023-05-23T05:56:37.855Z,6.75
2023-05-23T05:59:11.493Z,6.28
2023-05-23T06:01:39.041Z,6.97
2023-05-23T06:04:06.082Z,7.07
2023-05-23T06:06:33.105Z,7.03
2023-05-23T06:09:00.234Z,6.68
2023-05-23T06:11:27.957Z,6.47
2023-05-23T06:13:54.852Z,6.05
2023-05-23T06:16:22.035Z,5.75
2023-05-23T06:18:49.794Z,6.82
2023-05-23T06:21:16.675Z,6.93
2023-05-23T06:23:43.871Z,6.75
2023-05-23T06:26:11.056Z,7.53
2023-05-23T06:28:41.863Z,6.63
2023-05-23T06:31:11.930Z,7.28
2023-05-23T06:33:38.866Z,7.10
2023-05-23T06:36:05.760Z,5.88
2023-05-23T06:38:33.833Z,6.03
2023-05-23T06:41:00.784Z,6.60
2023-05-23T06:43:28.190Z,5.90
2023-05-23T06:46:08.232Z,6.10
2023-05-23T06:48:35.209Z,6.45
2023-05-23T06:51:01.974Z,6.82
2023-05-23T06:53:28.684Z,6.70
2023-05-23T06:55:55.436Z,7.55
2023-05-23T06:58:25.247Z,6.43
2023-05-23T07:00:53.476Z,6.78
2023-05-23T07:03:25.281Z,6.97
2023-05-23T07:05:54.376Z,6.47
2023-05-23T07:08:22.822Z,7.72
2023-05-23T07:11:00.614Z,6.45
2023-05-23T07:13:42.772Z,6.00
2023-05-23T07:16:15.532Z,6.25
2023-05-23T07:18:53.425Z,5.83
2023-05-23T07:21:20.328Z,5.55
2023-05-23T07:23:47.877Z,5.82
2023-05-23T07:26:15.108Z,7.22
2023-05-23T07:28:49.037Z,5.65
2023-05-23T07:31:15.813Z,6.20
2023-05-23T07:33:43.401Z,6.68
2023-05-23T07:36:14.039Z,6.05
2023-05-23T07:38:40.786Z,4.90
2023-05-23T07:41:11.934Z,5.90
2023-05-23T07:43:40.929Z,5.88
2023-05-23T07:46:08.126Z,6.25
2023-05-23T07:48:35.285Z,5.63
2023-05-23T07:51:03.088Z,6.13
2023-05-23T07:53:29.927Z,5.47
2023-05-23T07:55:57.778Z,7.10
2023-05-23T07:58:27.733Z,9.23
2023-05-23T08:00:54.490Z,7.90
2023-05-23T08:03:47.525Z,7.25
2023-05-23T08:06:21.253Z,6.93
2023-05-23T08:08:48.126Z,9.10
2023-05-23T08:11:15.657Z,9.05
2023-05-23T08:13:46.602Z,9.45
2023-05-23T08:16:31.902Z,9.07
2023-05-23T08:19:00.342Z,10.48
2023-05-23T08:21:27.797Z,10.43
2023-05-23T08:23:54.705Z,7.97
2023-05-23T08:26:21.952Z,9.38
2023-05-23T08:28:49.155Z,13.20
2023-05-23T08:31:16.813Z,9.27
2023-05-23T08:33:44.737Z,8.55
2023-05-23T08:36:12.584Z,8.93
2023-05-23T08:38:39.422Z,8.38
2023-05-23T08:41:19.937Z,14.23
2023-05-23T08:43:49.203Z,7.55
2023-05-23T08:46:23.665Z,8.35
2023-05-23T08:48:55.223Z,7.50
2023-05-23T08:51:26.846Z,8.15
2023-05-23T08:53:58.666Z,8.63
2023-05-23T08:56:28.382Z,10.65
2023-05-23T08:58:58.368Z,8.60
2023-05-23T09:01:27.788Z,8.73
2023-05-23T09:04:00.491Z,6.60
2023-05-23T09:06:37.044Z,6.30
2023-05-23T09:09:05.716Z,7.47
2023-05-23T09:11:36.114Z,6.57
2023-05-23T09:14:08.078Z,5.38
2023-05-23T09:16:37.723Z,7.40
2023-05-23T09:19:12.935Z,6.65
2023-05-23T09:21:46.761Z,7.68
2023-05-23T09:24:37.172Z,5.70
2023-05-23T09:27:07.597Z,6.65
2023-05-23T09:29:41.837Z,5.97
2023-05-23T09:32:13.329Z,5.28
2023-05-23T09:35:03.736Z,5.72
2023-05-23T09:37:36.002Z,5.32
2023-05-23T09:40:11.605Z,8.52
2023-05-23T09:42:48.513Z,5.45
2023-05-23T09:45:17.104Z,5.63
2023-05-23T09:47:53.227Z,6.80
2023-05-23T09:50:21.271Z,6.18
2023-05-23T09:52:48.590Z,5.67
2023-05-23T09:55:15.706Z,4.68
2023-05-23T09:57:44.256Z,4.78
2023-05-23T10:00:14.754Z,6.18
2023-05-23T10:02:54.719Z,6.70
2023-05-23T10:05:33.227Z,4.43
2023-05-23T10:08:03.159Z,6.35
2023-05-23T10:10:33.304Z,5.38
2023-05-23T10:13:04.258Z,5.05
2023-05-23T10:15:36.558Z,5.07
2023-05-23T10:18:12.721Z,5.72
2023-05-23T10:20:43.657Z,7.05
2023-05-23T10:23:11.565Z,6.85
2023-05-23T10:25:38.784Z,5.45
2023-05-23T10:28:05.931Z,4.65
2023-05-23T10:30:32.710Z,4.93
2023-05-23T10:33:00.753Z,5.88
2023-05-23T10:36:01.026Z,5.88
2023-05-23T10:38:42.815Z,5.50
2023-05-23T10:41:29.150Z,6.00
2023-05-23T10:44:17.316Z,5.10
2023-05-23T10:46:55.449Z,6.37
2023-05-23T10:49:22.777Z,6.60
2023-05-23T10:51:52.044Z,6.60
2023-05-23T10:54:22.945Z,5.32
2023-05-23T10:57:05.903Z,4.97
2023-05-23T10:59:32.856Z,6.45
2023-05-23T11:02:01.586Z,7.53
2023-05-23T11:04:29.346Z,6.82
2023-05-23T11:06:57.114Z,4.57
2023-05-23T11:09:24.754Z,8.57
2023-05-23T11:11:54.111Z,5.05
2023-05-23T11:14:38.097Z,7.95
2023-05-23T11:17:13.619Z,6.15
2023-05-23T11:19:55.459Z,4.85
2023-05-23T11:22:27.187Z,5.93
2023-05-23T11:24:55.620Z,5.80
2023-05-23T11:27:37.844Z,5.53
2023-05-23T11:30:09.037Z,5.05
2023-05-23T11:32:37.332Z,5.90
2023-05-23T11:35:07.079Z,5.97
2023-05-23T11:37:34.565Z,6.55
2023-05-23T11:40:34.581Z,4.78
2023-05-23T11:43:03.358Z,5.90
2023-05-23T11:45:34.774Z,5.18
2023-05-23T11:48:12.007Z,6.15
2023-05-23T11:50:52.165Z,5.38
2023-05-23T11:53:25.330Z,4.93
2023-05-23T11:55:55.895Z,5.40
2023-05-23T11:58:26.995Z,5.25
2023-05-23T12:01:03.278Z,4.72
2023-05-23T12:03:31.909Z,4.03
2023-05-23T12:05:59.288Z,4.63
2023-05-23T12:08:26.210Z,4.45
2023-05-23T12:10:56.920Z,3.95
2023-05-23T12:13:28.878Z,4.50
2023-05-23T12:16:02.484Z,4.82
2023-05-23T12:18:31.634Z,5.20
2023-05-23T12:21:03.442Z,4.13
2023-05-23T12:23:31.775Z,6.38
2023-05-23T12:25:59.870Z,4.63
2023-05-23T12:28:45.027Z,4.45
2023-05-23T12:31:19.661Z,5.32
2023-05-23T12:33:48.132Z,4.72
2023-05-23T12:38:45.376Z,4.70
2023-05-23T12:41:20.692Z,4.90
2023-05-23T12:43:52.204Z,5.63
2023-05-23T12:46:23.166Z,3.60
2023-05-23T12:48:50.678Z,4.28
2023-05-23T12:51:17.969Z,5.45
2023-05-23T12:53:45.564Z,5.68
2023-05-23T12:56:12.800Z,4.95
2023-05-23T12:58:39.983Z,6.00
2023-05-23T13:01:06.733Z,5.03
2023-05-23T13:03:33.496Z,5.25
2023-05-23T13:06:00.296Z,3.50
2023-05-23T13:08:30.322Z,5.20
2023-05-23T13:10:57.611Z,6.60
2023-05-23T13:13:24.948Z,2.90
2023-05-23T13:15:52.287Z,6.15
2023-05-23T13:18:19.358Z,4.30
2023-05-23T13:20:46.482Z,3.90
2023-05-23T13:23:14.162Z,4.32
2023-05-23T13:25:41.250Z,6.03
2023-05-23T13:28:08.413Z,4.45
2023-05-23T13:30:35.321Z,4.68
2023-05-23T13:33:02.364Z,6.07
2023-05-23T13:35:29.527Z,6.70
2023-05-23T13:37:56.341Z,5.50
2023-05-23T13:40:23.357Z,7.63
2023-05-23T13:42:51.398Z,4.78
2023-05-23T13:45:20.021Z,4.35
2023-05-23T13:47:47.475Z,4.60
2023-05-23T13:50:14.460Z,3.90
2023-05-23T13:52:44.150Z,3.92
2023-05-23T13:55:12.847Z,3.25
2023-05-23T13:57:39.740Z,5.28
2023-05-23T14:00:08.927Z,3.72
2023-05-23T14:02:35.813Z,6.13
2023-05-23T14:05:03.047Z,5.22
2023-05-23T14:07:29.921Z,4.25
2023-05-23T14:09:57.608Z,5.65
2023-05-23T14:12:24.570Z,4.88
2023-05-23T14:14:51.401Z,4.07
2023-05-23T14:17:18.515Z,5.97
2023-05-23T14:19:46.257Z,4.60
2023-05-23T14:22:13.490Z,3.08
2023-05-23T14:24:40.575Z,4.03
2023-05-23T14:27:10.190Z,4.47
2023-05-23T14:29:37.895Z,6.28
2023-05-23T14:32:04.894Z,4.25
2023-05-23T14:34:32.256Z,6.53
2023-05-23T14:36:59.062Z,5.07
2023-05-23T14:39:25.847Z,4.05
2023-05-23T14:41:52.774Z,6.32
2023-05-23T14:44:19.840Z,4.63
2023-05-23T14:46:50.221Z,7.72
2023-05-23T14:49:19.855Z,7.18
2023-05-23T14:51:51.653Z,5.00
2023-05-23T14:54:19.473Z,6.82
2023-05-23T14:56:46.441Z,7.53
2023-05-23T14:59:13.424Z,4.05
2023-05-23T15:01:41.074Z,4.00
2023-05-23T15:04:09.550Z,6.30
2023-05-23T15:06:38.598Z,4.63
2023-05-23T15:09:05.701Z,5.13
2023-05-23T15:11:34.949Z,3.42
2023-05-23T15:14:01.993Z,5.95
2023-05-23T15:16:32.825Z,5.05
2023-05-23T15:19:00.714Z,4.47
2023-05-23T15:21:27.586Z,5.05
2023-05-23T15:23:54.444Z,4.97
2023-05-23T15:26:22.567Z,6.43
2023-05-23T15:28:49.428Z,4.22
2023-05-23T15:31:16.519Z,6.05
2023-05-23T15:33:43.441Z,7.88
2023-05-23T15:36:10.144Z,5.25
2023-05-23T15:38:36.893Z,4.15
2023-05-23T15:41:04.861Z,5.63
2023-05-23T15:43:32.739Z,6.75
2023-05-23T15:46:00.572Z,6.45
2023-05-23T15:48:27.415Z,4.85
2023-05-23T15:50:54.734Z,3.83
2023-05-23T15:53:21.711Z,4.38
2023-05-23T15:55:48.620Z,4.72
2023-05-23T15:58:15.599Z,4.65
2023-05-23T16:00:42.626Z,4.93
2023-05-23T16:03:09.696Z,4.53
2023-05-23T16:05:36.661Z,5.25
2023-05-23T16:08:03.512Z,4.85
2023-05-23T16:10:30.684Z,4.45
2023-05-23T16:12:57.451Z,4.80
2023-05-23T16:15:24.309Z,4.78
2023-05-23T16:17:51.068Z,4.15
2023-05-23T16:20:17.986Z,5.38
2023-05-23T16:22:45.972Z,5.15
2023-05-23T16:25:13.101Z,6.10
2023-05-23T16:27:40.630Z,4.40
2023-05-23T16:30:09.754Z,5.30
2023-05-23T16:35:03.278Z,3.08
2023-05-23T16:37:30.074Z,4.72
2023-05-23T16:39:56.925Z,3.42
2023-05-23T16:42:23.673Z,4.15
2023-05-23T16:44:50.449Z,4.95
2023-05-23T16:47:17.194Z,4.10
2023-05-23T16:49:44.180Z,5.03
2023-05-23T16:52:11.335Z,3.78
2023-05-23T16:54:38.421Z,3.58
2023-05-23T16:57:05.678Z,4.03
2023-05-23T16:59:32.687Z,7.25
2023-05-23T17:01:59.662Z,4.80
2023-05-23T17:04:26.516Z,3.97
2023-05-23T17:06:53.476Z,5.78
2023-05-23T17:09:21.865Z,4.95
2023-05-23T17:11:49.433Z,7.60
2023-05-23T17:14:16.267Z,5.63
2023-05-23T17:16:43.392Z,5.07
2023-05-23T17:19:10.154Z,4.18
2023-05-23T17:21:37.614Z,6.82
2023-05-23T17:24:04.575Z,6.32
2023-05-23T17:26:31.358Z,5.50
2023-05-23T17:28:58.148Z,3.83
2023-05-23T17:31:25.117Z,3.25
2023-05-23T17:33:51.857Z,5.28
2023-05-23T17:36:18.733Z,3.60
2023-05-23T17:38:45.601Z,2.88
2023-05-23T17:41:14.035Z,3.30
2023-05-23T17:43:41.954Z,5.43
2023-05-23T17:46:09.386Z,4.40
2023-05-23T17:48:47.197Z,4.82
2023-05-23T17:51:15.958Z,4.03
2023-05-23T17:53:43.335Z,4.70
2023-05-23T17:56:10.427Z,5.13
2023-05-23T17:58:38.841Z,3.55
2023-05-23T18:01:07.304Z,5.15
2023-05-23T18:03:34.318Z,5.28
2023-05-23T18:06:01.112Z,5.20
2023-05-23T18:08:28.060Z,6.07
2023-05-23T18:10:55.453Z,4.85
2023-05-23T18:13:22.338Z,4.15
2023-05-23T18:15:49.320Z,6.00
2023-05-23T18:18:17.681Z,5.00
2023-05-23T18:20:44.687Z,3.97
2023-05-23T18:23:12.084Z,5.85
2023-05-23T18:25:38.829Z,5.95
2023-05-23T18:28:05.719Z,3.88
2023-05-23T18:30:33.400Z,5.78
2023-05-23T18:33:00.590Z,3.70
2023-05-23T18:35:27.662Z,4.00
2023-05-23T18:37:54.625Z,5.00
2023-05-23T18:40:23.922Z,3.85
2023-05-23T18:42:50.860Z,4.80
2023-05-23T18:45:17.783Z,5.00
2023-05-23T18:47:44.848Z,4.68
2023-05-23T18:50:13.080Z,4.00
2023-05-23T18:52:40.190Z,3.93
2023-05-23T18:55:07.694Z,4.20
2023-05-23T18:57:34.549Z,5.47
2023-05-23T19:00:02.524Z,5.35
2023-05-23T19:02:29.551Z,3.92
2023-05-23T19:04:56.471Z,5.07
2023-05-23T19:07:23.330Z,3.78
2023-05-23T19:09:50.840Z,4.13
2023-05-23T19:12:17.889Z,3.25
2023-05-23T19:14:44.814Z,2.67
2023-05-23T19:17:11.679Z,3.30
2023-05-23T19:19:38.559Z,3.67
2023-05-23T19:22:05.393Z,5.65
2023-05-23T19:24:32.234Z,4.18
2023-05-23T19:26:59.095Z,3.35
2023-05-23T19:29:26.719Z,3.28
2023-05-23T19:31:54.749Z,4.63
2023-05-23T19:34:22.143Z,3.13
2023-05-23T19:36:49.191Z,2.67
2023-05-23T19:39:16.008Z,4.43
2023-05-23T19:41:42.840Z,5.07
2023-05-23T19:44:09.850Z,4.00
2023-05-23T19:46:36.865Z,2.22
2023-05-23T19:49:03.845Z,2.13
2023-05-23T19:51:30.556Z,3.10
2023-05-23T19:53:57.370Z,3.25
2023-05-23T19:56:25.257Z,3.33
2023-05-23T19:58:52.315Z,3.03
2023-05-23T20:01:19.176Z,4.15
2023-05-23T20:03:45.985Z,4.60
2023-05-23T20:06:12.784Z,2.97
2023-05-23T20:08:39.615Z,4.65
2023-05-23T20:11:06.324Z,4.07
2023-05-23T20:13:33.129Z,4.30
2023-05-23T20:16:00.145Z,3.35
2023-05-23T20:18:26.932Z,3.50
2023-05-23T20:20:53.868Z,3.45
2023-05-23T20:23:20.911Z,4.38
2023-05-23T20:25:47.786Z,4.10
2023-05-23T20:28:14.732Z,3.33
2023-05-23T20:30:41.820Z,5.15
2023-05-23T20:33:09.270Z,5.05
2023-05-23T20:35:36.665Z,4.75
2023-05-23T20:38:03.722Z,2.55
2023-05-23T20:40:33.583Z,5.03
2023-05-23T20:43:04.761Z,4.10
2023-05-23T20:45:32.670Z,3.33
2023-05-23T20:47:59.927Z,4.70
2023-05-23T20:50:26.860Z,4.35
2023-05-23T20:52:54.008Z,3.83
2023-05-23T20:55:22.376Z,3.20
2023-05-23T20:57:49.425Z,2.53
2023-05-23T21:00:16.572Z,2.22
2023-05-23T21:02:43.816Z,4.80
2023-05-23T21:05:11.942Z,3.67
2023-05-23T21:07:39.082Z,4.05
2023-05-23T21:10:06.578Z,4.20
2023-05-23T21:12:33.280Z,2.85
2023-05-23T21:15:00.308Z,3.70
2023-05-23T21:17:27.093Z,7.82
2023-05-23T21:19:53.871Z,4.75
2023-05-23T21:22:20.908Z,3.45
2023-05-23T21:24:47.899Z,5.63
2023-05-23T21:27:14.697Z,3.42
2023-05-23T21:29:42.091Z,3.53
2023-05-23T21:32:08.945Z,3.58
2023-05-23T21:34:35.936Z,3.42
2023-05-23T21:37:02.798Z,3.88
2023-05-23T21:39:43.001Z,4.40
2023-05-23T21:42:14.281Z,4.30
2023-05-23T21:44:41.222Z,3.42
2023-05-23T21:47:08.158Z,3.03
2023-05-23T21:49:35.495Z,2.38
2023-05-23T21:52:02.749Z,3.00
2023-05-23T21:54:29.584Z,3.97
2023-05-23T21:56:56.833Z,2.88
2023-05-23T21:59:23.874Z,2.50
2023-05-23T22:01:51.042Z,2.63
2023-05-23T22:04:21.117Z,4.10
2023-05-23T22:06:47.961Z,3.03
2023-05-23T22:09:15.359Z,3.45
2023-05-23T22:11:42.892Z,4.57
2023-05-23T22:14:10.143Z,2.95
2023-05-23T22:16:39.871Z,4.93
2023-05-23T22:19:09.757Z,2.70
2023-05-23T22:21:37.128Z,4.07
2023-05-23T22:24:04.357Z,3.35
2023-05-23T22:26:31.125Z,3.90
2023-05-23T22:28:58.141Z,2.63
2023-05-23T22:31:25.116Z,2.80
2023-05-23T22:33:52.219Z,2.83
2023-05-23T22:36:18.869Z,3.60
2023-05-23T22:38:45.789Z,3.28
2023-05-23T22:41:12.679Z,3.50
2023-05-23T22:43:39.822Z,3.67
2023-05-23T22:46:07.342Z,3.17
2023-05-23T22:48:34.464Z,2.55
2023-05-23T22:51:04.050Z,3.35
2023-05-23T22:53:31.164Z,1.92
2023-05-23T22:55:58.087Z,3.53
2023-05-23T22:58:24.825Z,3.35
2023-05-23T23:00:51.909Z,3.38
2023-05-23T23:03:18.909Z,4.55
2023-05-23T23:05:46.426Z,4.28
2023-05-23T23:08:13.318Z,3.50
2023-05-23T23:10:41.537Z,4.13
2023-05-23T23:13:08.740Z,3.08
2023-05-23T23:15:36.925Z,2.80
2023-05-23T23:18:05.849Z,2.33
2023-05-23T23:20:33.080Z,2.60
2023-05-23T23:23:00.461Z,3.60
2023-05-23T23:25:27.096Z,2.65
2023-05-23T23:27:53.849Z,3.67
2023-05-23T23:30:21.078Z,2.78
2023-05-23T23:32:48.064Z,4.78
2023-05-23T23:35:14.737Z,2.50
2023-05-23T23:37:41.486Z,3.45
2023-05-23T23:40:08.809Z,4.47
2023-05-23T23:42:35.670Z,2.50
2023-05-23T23:45:03.054Z,3.58
2023-05-23T23:47:30.101Z,3.67
2023-05-23T23:49:56.768Z,3.05
2023-05-23T23:52:23.468Z,3.05
2023-05-23T23:54:50.705Z,2.63
2023-05-23T23:57:17.611Z,2.95
2023-05-23T23:59:44.361Z,3.40
